Time;durP1;ratioP1;P1;durP2;ratioP2;P2;SDS_P1;SDS_P2;PMS_P1;PMS_P2;Temp;Humidity;BMP_temperature;BMP_pressure;BME280_temperature;BME280_humidity;BME280_pressure;Samples;Min_cycle;Max_cycle;Signal;HPM_P1;HPM_P2
2021/05/22 00:00:13;;;;;;;8.27;1.48;;;10.50;95.70;;;;;;5056730;28;20159;-81
2021/05/22 00:02:39;;;;;;;5.32;1.60;;;10.60;95.30;;;;;;5056195;28;20392;-80
2021/05/22 00:05:05;;;;;;;9.55;1.30;;;10.60;95.00;;;;;;5056246;28;20468;-81
2021/05/22 00:07:32;;;;;;;5.13;1.08;;;10.70;94.90;;;;;;5070380;28;20040;-81
2021/05/22 00:09:57;;;;;;;5.53;1.48;;;10.70;94.50;;;;;;5057699;28;20112;-80
2021/05/22 00:12:24;;;;;;;6.80;1.23;;;10.80;94.40;;;;;;5058707;28;20096;-81
2021/05/22 00:14:51;;;;;;;6.75;1.52;;;10.80;94.10;;;;;;5056595;28;20024;-80
2021/05/22 00:17:17;;;;;;;4.20;1.77;;;10.80;94.00;;;;;;5058675;28;20087;-80
2021/05/22 00:19:42;;;;;;;5.13;1.20;;;10.70;93.90;;;;;;5055748;28;20468;-80
2021/05/22 00:22:08;;;;;;;4.57;1.23;;;10.70;93.90;;;;;;5055988;28;20107;-80
2021/05/22 00:24:33;;;;;;;5.78;1.33;;;10.70;93.70;;;;;;5054732;28;20029;-80
2021/05/22 00:26:59;;;;;;;7.78;1.88;;;10.70;93.90;;;;;;5057522;28;20083;-81
2021/05/22 00:29:24;;;;;;;9.32;1.33;;;10.70;93.40;;;;;;5069903;28;20048;-80
2021/05/22 00:31:50;;;;;;;5.03;1.10;;;10.70;93.40;;;;;;5056464;28;20028;-80
2021/05/22 00:34:15;;;;;;;4.75;1.20;;;10.70;93.00;;;;;;5057309;28;20380;-81
2021/05/22 00:36:41;;;;;;;5.30;1.30;;;10.70;92.90;;;;;;5054036;28;20079;-80
2021/05/22 00:39:07;;;;;;;3.55;1.20;;;10.70;93.10;;;;;;5055127;28;20103;-80
2021/05/22 00:41:32;;;;;;;8.68;1.60;;;10.70;93.20;;;;;;5069928;28;20467;-80
2021/05/22 00:43:58;;;;;;;6.90;1.10;;;10.60;93.00;;;;;;5054649;28;20013;-81
2021/05/22 00:46:23;;;;;;;7.85;1.02;;;10.60;93.00;;;;;;5069445;28;20017;-81
2021/05/22 00:48:49;;;;;;;10.05;1.85;;;10.60;93.00;;;;;;5056056;28;20024;-80
2021/05/22 00:51:15;;;;;;;7.97;1.05;;;10.60;92.90;;;;;;5057038;28;20070;-80
2021/05/22 00:53:41;;;;;;;6.90;0.95;;;10.60;92.80;;;;;;5070439;28;20021;-80
2021/05/22 00:56:06;;;;;;;9.90;1.50;;;10.70;92.80;;;;;;5056080;28;20021;-80
2021/05/22 00:58:34;;;;;;;12.23;1.65;;;10.70;92.60;;;;;;5057624;28;20033;-80
2021/05/22 01:01:00;;;;;;;4.65;1.08;;;10.70;92.60;;;;;;5055457;28;20017;-80
2021/05/22 01:03:27;;;;;;;7.35;1.65;;;10.80;92.50;;;;;;5055935;28;20472;-80
2021/05/22 01:06:18;;;;;;;6.72;0.90;;;10.80;92.20;;;;;;5054360;28;20021;-80
2021/05/22 01:08:47;;;;;;;6.82;1.33;;;10.90;92.20;;;;;;5054015;28;20029;-80
2021/05/22 01:11:18;;;;;;;10.07;0.97;;;10.90;92.20;;;;;;5056370;28;20045;-80
2021/05/22 01:13:47;;;;;;;6.60;1.20;;;10.90;92.00;;;;;;5056555;28;20259;-80
2021/05/22 01:16:16;;;;;;;8.02;1.02;;;10.90;92.00;;;;;;5055551;28;20108;-80
2021/05/22 01:18:42;;;;;;;4.20;0.75;;;10.80;92.10;;;;;;5055964;28;20032;-80
2021/05/22 01:21:08;;;;;;;6.50;1.92;;;10.80;92.30;;;;;;5053201;28;20468;-80
2021/05/22 01:23:55;;;;;;;5.35;0.90;;;10.80;92.20;;;;;;5054332;28;20033;-80
2021/05/22 01:26:22;;;;;;;5.45;1.30;;;10.80;92.10;;;;;;5053549;28;20036;-80
2021/05/22 01:28:47;;;;;;;9.27;1.67;;;10.80;92.10;;;;;;5057004;28;20484;-80
2021/05/22 01:31:13;;;;;;;7.00;1.52;;;10.80;92.10;;;;;;5054810;28;20083;-80
2021/05/22 01:33:39;;;;;;;8.60;1.27;;;10.80;92.30;;;;;;5055117;28;20017;-80
2021/05/22 01:36:05;;;;;;;6.72;1.30;;;10.80;92.20;;;;;;5055605;28;20017;-80
2021/05/22 01:38:31;;;;;;;5.13;1.27;;;10.80;92.20;;;;;;5052800;28;20500;-80
2021/05/22 01:40:57;;;;;;;5.57;1.55;;;10.80;92.10;;;;;;5053998;28;20053;-80
2021/05/22 01:43:22;;;;;;;5.68;1.27;;;10.80;92.30;;;;;;5053124;28;20557;-80
2021/05/22 01:45:51;;;;;;;4.25;0.88;;;10.80;92.30;;;;;;5056900;28;20017;-80
2021/05/22 01:48:19;;;;;;;6.05;1.40;;;10.80;92.20;;;;;;5055123;28;20032;-80
2021/05/22 01:50:50;;;;;;;5.97;1.10;;;10.80;92.40;;;;;;5054591;28;20104;-80
2021/05/22 01:53:17;;;;;;;6.75;1.15;;;10.80;92.60;;;;;;5054174;28;20472;-81
2021/05/22 01:55:46;;;;;;;4.47;0.88;;;10.80;92.70;;;;;;5055184;28;20480;-80
2021/05/22 01:58:12;;;;;;;5.70;1.20;;;10.80;92.60;;;;;;5054793;28;20420;-80
2021/05/22 02:00:40;;;;;;;5.40;1.05;;;10.80;92.80;;;;;;5054358;28;20067;-80
2021/05/22 02:03:11;;;;;;;4.97;0.95;;;10.80;92.70;;;;;;5054066;28;20555;-80
2021/05/22 02:05:38;;;;;;;7.15;1.23;;;10.70;92.80;;;;;;5052038;28;20128;-80
2021/05/22 02:08:08;;;;;;;6.63;1.00;;;10.70;92.80;;;;;;5055861;28;20024;-80
2021/05/22 02:10:34;;;;;;;4.03;0.82;;;10.80;93.00;;;;;;5055264;28;20461;-80
2021/05/22 02:13:00;;;;;;;6.53;1.08;;;10.80;92.70;;;;;;5056286;28;20096;-81
2021/05/22 02:15:27;;;;;;;7.32;1.10;;;10.80;92.90;;;;;;5056831;28;20096;-80
2021/05/22 02:17:54;;;;;;;6.82;1.13;;;10.80;92.90;;;;;;5067863;28;20032;-80
2021/05/22 02:20:25;;;;;;;4.13;1.05;;;10.80;92.90;;;;;;5054653;28;20021;-80
2021/05/22 02:22:52;;;;;;;6.40;1.30;;;10.80;92.90;;;;;;5053280;28;20098;-80
2021/05/22 02:25:19;;;;;;;7.20;1.10;;;10.80;93.30;;;;;;5052769;28;20126;-80
2021/05/22 02:27:45;;;;;;;5.03;1.13;;;10.80;93.10;;;;;;5055007;28;20017;-80
2021/05/22 02:30:14;;;;;;;4.15;1.20;;;10.80;93.20;;;;;;5053327;28;20118;-80
2021/05/22 02:32:42;;;;;;;6.55;1.42;;;10.80;93.00;;;;;;5056316;28;20148;-80
2021/05/22 02:35:09;;;;;;;6.15;0.90;;;10.80;93.10;;;;;;5052685;28;20021;-80
2021/05/22 02:37:36;;;;;;;8.82;1.13;;;10.80;93.30;;;;;;5054265;28;20041;-81
2021/05/22 02:40:11;;;;;;;4.90;0.68;;;10.80;93.20;;;;;;5068358;28;20025;-80
2021/05/22 02:42:37;;;;;;;6.95;1.10;;;10.80;93.10;;;;;;5052796;28;20029;-80
2021/05/22 02:45:07;;;;;;;4.85;0.93;;;10.80;93.50;;;;;;5054968;28;20060;-80
2021/05/22 02:47:33;;;;;;;;;;;10.80;93.40;;;;;;5056795;28;20025;-80
2021/05/22 02:50:09;;;;;;;3.63;0.80;;;10.80;93.60;;;;;;5062752;28;19962;-78
2021/05/22 02:52:37;;;;;;;5.30;0.98;;;10.80;93.80;;;;;;5072288;28;20047;-78
2021/05/22 02:55:05;;;;;;;4.72;0.60;;;10.80;94.50;;;;;;5071946;28;20013;-77
2021/05/22 02:57:32;;;;;;;3.92;0.80;;;10.70;94.60;;;;;;5071702;28;20021;-78
2021/05/22 02:59:58;;;;;;;4.45;0.65;;;10.70;94.60;;;;;;5056311;28;20017;-80
2021/05/22 03:02:24;;;;;;;6.28;1.10;;;10.70;94.40;;;;;;5054108;28;20108;-80
2021/05/22 03:04:49;;;;;;;5.25;0.95;;;10.70;94.00;;;;;;5057267;28;20087;-80
2021/05/22 03:07:15;;;;;;;5.10;0.85;;;10.80;93.90;;;;;;5056982;28;20125;-80
2021/05/22 03:09:41;;;;;;;5.43;1.00;;;10.80;93.80;;;;;;5056475;28;20099;-80
2021/05/22 03:12:08;;;;;;;5.38;0.82;;;10.80;93.80;;;;;;5061129;28;20038;-80
2021/05/22 03:14:33;;;;;;;3.60;0.65;;;10.80;93.90;;;;;;5058108;28;20510;-80
2021/05/22 03:16:59;;;;;;;5.45;0.70;;;10.80;93.40;;;;;;5060840;28;20044;-80
2021/05/22 03:19:25;;;;;;;7.22;0.80;;;10.80;93.80;;;;;;5057124;28;20029;-81
2021/05/22 03:21:50;;;;;;;5.93;0.70;;;10.80;93.70;;;;;;5057043;28;20099;-80
2021/05/22 03:24:16;;;;;;;7.53;1.00;;;10.80;93.60;;;;;;5056776;28;20096;-80
2021/05/22 03:26:41;;;;;;;4.13;0.55;;;10.90;93.40;;;;;;5056005;28;20025;-80
2021/05/22 03:29:07;;;;;;;7.03;0.80;;;10.90;93.70;;;;;;5060728;28;20021;-81
2021/05/22 03:31:33;;;;;;;6.00;0.65;;;10.90;93.60;;;;;;5057672;28;20369;-80
2021/05/22 03:33:58;;;;;;;3.67;0.70;;;10.90;93.50;;;;;;5057606;28;20021;-80
2021/05/22 03:36:24;;;;;;;2.85;0.60;;;10.90;93.80;;;;;;5056538;28;20041;-80
2021/05/22 03:38:49;;;;;;;3.45;0.50;;;10.90;93.80;;;;;;5074846;28;20041;-80
2021/05/22 03:41:15;;;;;;;5.35;0.70;;;10.90;93.90;;;;;;5059201;28;20025;-80
2021/05/22 03:43:41;;;;;;;8.25;1.10;;;10.90;93.80;;;;;;5056122;28;20033;-81
2021/05/22 03:46:06;;;;;;;6.90;0.70;;;10.90;94.30;;;;;;5059153;28;20028;-80
2021/05/22 03:48:32;;;;;;;3.67;0.65;;;10.90;94.00;;;;;;5058551;28;20043;-80
2021/05/22 03:50:57;;;;;;;4.57;0.60;;;10.90;94.00;;;;;;5058591;28;20079;-81
2021/05/22 03:53:23;;;;;;;5.18;1.10;;;10.90;93.90;;;;;;5056511;28;20075;-80
2021/05/22 03:55:49;;;;;;;4.80;0.90;;;10.90;94.20;;;;;;5057676;28;20049;-80
2021/05/22 03:58:14;;;;;;;5.78;0.90;;;10.90;93.90;;;;;;5060662;28;20036;-80
2021/05/22 04:00:40;;;;;;;4.47;0.80;;;10.90;93.90;;;;;;5070124;28;20017;-80
2021/05/22 04:03:06;;;;;;;4.32;1.08;;;10.90;94.00;;;;;;5055141;28;20472;-80
2021/05/22 04:05:33;;;;;;;3.75;0.60;;;11.00;94.00;;;;;;5058120;28;20036;-80
2021/05/22 04:07:59;;;;;;;7.78;1.38;;;10.90;94.20;;;;;;5055578;28;20400;-80
2021/05/22 04:10:25;;;;;;;5.88;1.00;;;10.90;94.40;;;;;;5057970;28;20021;-80
2021/05/22 04:12:50;;;;;;;13.25;1.00;;;10.90;94.30;;;;;;5057426;28;20090;-80
2021/05/22 04:15:16;;;;;;;5.93;0.90;;;10.90;94.40;;;;;;5060903;28;20423;-81
2021/05/22 04:17:41;;;;;;;6.50;1.25;;;10.90;94.60;;;;;;5058080;28;20567;-80
2021/05/22 04:20:07;;;;;;;7.72;1.50;;;10.90;94.60;;;;;;5056037;28;20032;-80
2021/05/22 04:22:33;;;;;;;7.35;1.92;;;10.90;94.80;;;;;;5056694;28;20450;-81
2021/05/22 04:24:58;;;;;;;4.75;0.90;;;10.90;94.90;;;;;;5055192;28;20502;-80
2021/05/22 04:27:24;;;;;;;3.90;0.98;;;10.90;95.10;;;;;;5054790;28;20383;-80
2021/05/22 04:29:49;;;;;;;5.38;0.80;;;10.80;95.10;;;;;;5055918;28;20147;-80
2021/05/22 04:32:15;;;;;;;10.18;0.82;;;10.80;95.20;;;;;;5057137;28;20475;-80
2021/05/22 04:34:40;;;;;;;7.90;1.20;;;10.80;95.10;;;;;;5071681;28;20016;-81
2021/05/22 04:37:06;;;;;;;9.65;1.20;;;10.90;95.30;;;;;;5055651;28;20051;-80
2021/05/22 04:39:31;;;;;;;6.10;1.27;;;10.80;95.60;;;;;;5056382;28;20039;-80
2021/05/22 04:41:57;;;;;;;5.78;1.20;;;10.80;96.30;;;;;;5070210;28;20021;-80
2021/05/22 04:44:23;;;;;;;3.88;0.98;;;10.70;97.10;;;;;;5070069;28;20029;-80
2021/05/22 04:46:49;;;;;;;4.95;0.98;;;10.60;97.70;;;;;;5056556;28;20107;-80
2021/05/22 04:49:14;;;;;;;7.75;1.13;;;10.40;98.20;;;;;;5058167;28;20021;-80
2021/05/22 04:51:40;;;;;;;4.95;1.05;;;10.40;99.00;;;;;;5055884;28;20021;-80
2021/05/22 04:54:08;;;;;;;9.88;1.60;;;10.30;99.30;;;;;;5055554;28;20040;-80
2021/05/22 04:56:34;;;;;;;7.82;2.17;;;10.30;99.60;;;;;;5057361;28;20445;-81
2021/05/22 04:59:00;;;;;;;9.20;1.30;;;10.30;99.70;;;;;;5054855;28;20111;-80
2021/05/22 05:01:26;;;;;;;8.95;1.58;;;10.30;99.90;;;;;;5070932;28;20396;-80
2021/05/22 05:03:52;;;;;;;6.75;1.45;;;10.30;99.60;;;;;;5056335;28;20495;-80
2021/05/22 05:06:18;;;;;;;11.23;1.35;;;10.30;99.80;;;;;;5054668;28;20029;-80
2021/05/22 05:08:43;;;;;;;9.25;1.20;;;10.30;99.90;;;;;;5054805;28;20474;-80
2021/05/22 05:11:09;;;;;;;6.88;1.05;;;10.20;99.90;;;;;;5053917;28;20017;-80
2021/05/22 05:13:35;;;;;;;13.88;1.48;;;10.20;99.90;;;;;;5058501;28;20042;-80
2021/05/22 05:16:01;;;;;;;6.97;1.48;;;10.10;99.90;;;;;;5057579;28;20388;-80
2021/05/22 05:18:27;;;;;;;8.68;1.15;;;10.10;99.90;;;;;;5055168;28;20502;-80
2021/05/22 05:20:52;;;;;;;7.55;1.25;;;10.10;99.90;;;;;;5055985;28;20029;-80
2021/05/22 05:23:18;;;;;;;7.10;1.52;;;10.00;99.90;;;;;;5057159;28;20055;-80
2021/05/22 05:25:43;;;;;;;6.97;1.27;;;10.00;99.90;;;;;;5053925;28;20048;-80
2021/05/22 05:28:09;;;;;;;10.15;1.50;;;10.00;99.90;;;;;;5053143;28;20472;-80
2021/05/22 05:30:35;;;;;;;10.63;1.33;;;10.00;99.90;;;;;;5067011;28;20373;-80
2021/05/22 05:33:00;;;;;;;9.60;1.40;;;10.00;99.90;;;;;;5058798;28;20032;-80
2021/05/22 05:35:26;;;;;;;9.38;1.20;;;10.00;99.90;;;;;;5067538;28;20025;-80
2021/05/22 05:37:51;;;;;;;6.72;1.20;;;9.90;99.90;;;;;;5088288;28;20056;-81
2021/05/22 05:40:19;;;;;;;11.43;1.42;;;9.90;99.90;;;;;;5073806;28;20051;-80
2021/05/22 05:42:46;;;;;;;6.75;1.35;;;9.80;99.90;;;;;;5073592;28;20025;-80
2021/05/22 05:45:12;;;;;;;8.48;1.50;;;9.80;99.90;;;;;;5073939;28;20040;-80
2021/05/22 05:47:37;;;;;;;10.23;2.20;;;9.80;99.90;;;;;;5073464;28;20065;-80
2021/05/22 05:50:03;;;;;;;8.85;2.40;;;9.80;99.90;;;;;;5074710;28;20075;-80
2021/05/22 05:52:29;;;;;;;12.20;1.92;;;9.80;99.90;;;;;;5073710;28;20028;-80
2021/05/22 05:54:54;;;;;;;8.20;1.40;;;9.80;99.90;;;;;;5073741;28;20047;-80
2021/05/22 05:57:20;;;;;;;12.20;1.77;;;9.80;99.90;;;;;;5072318;28;20499;-81
2021/05/22 05:59:45;;;;;;;9.02;1.55;;;9.70;99.90;;;;;;5072837;28;20039;-81
2021/05/22 06:02:11;;;;;;;9.20;1.75;;;9.60;99.90;;;;;;5073123;28;20503;-81
2021/05/22 06:04:36;;;;;;;9.13;1.38;;;9.50;99.90;;;;;;5072802;28;20035;-82
2021/05/22 06:07:02;;;;;;;10.73;1.77;;;9.60;99.90;;;;;;5073056;28;20523;-82
2021/05/22 06:09:28;;;;;;;11.95;2.05;;;9.60;99.90;;;;;;5073526;28;20020;-80
2021/05/22 06:11:53;;;;;;;9.82;1.50;;;9.60;99.90;;;;;;5073463;28;20365;-81
2021/05/22 06:14:27;;;;;;;10.07;1.67;;;9.60;99.90;;;;;;5073399;28;20027;-81
2021/05/22 06:16:53;;;;;;;7.68;1.33;;;9.50;99.90;;;;;;5073352;28;20040;-82
2021/05/22 06:19:18;;;;;;;10.20;1.60;;;9.50;99.90;;;;;;5072047;28;20024;-82
2021/05/22 06:21:44;;;;;;;3.70;1.17;;;9.50;99.90;;;;;;5072044;28;20025;-82
2021/05/22 06:24:10;;;;;;;10.98;1.65;;;9.40;99.90;;;;;;5073419;28;20021;-83
2021/05/22 06:26:35;;;;;;;10.15;2.30;;;9.40;99.90;;;;;;5071859;28;20123;-82
2021/05/22 06:29:01;;;;;;;11.48;2.47;;;9.40;99.90;;;;;;5073184;28;20035;-82
2021/05/22 06:31:27;;;;;;;6.88;1.30;;;9.40;99.90;;;;;;5073172;28;20028;-82
2021/05/22 06:33:52;;;;;;;5.07;1.38;;;9.40;99.90;;;;;;5073099;28;20082;-82
2021/05/22 06:36:18;;;;;;;5.63;1.58;;;9.40;99.90;;;;;;5071906;28;20016;-82
2021/05/22 06:38:43;;;;;;;5.85;1.58;;;9.40;99.90;;;;;;5072520;28;20044;-81
2021/05/22 06:41:09;;;;;;;10.25;2.05;;;9.40;99.90;;;;;;5073204;28;20074;-81
2021/05/22 06:43:35;;;;;;;7.35;1.75;;;9.40;99.90;;;;;;5071760;28;20468;-80
2021/05/22 06:46:47;;;;;;;6.70;2.25;;;9.40;99.90;;;;;;5073126;28;20024;-81
2021/05/22 06:48:55;;;;;;;10.70;2.15;;;9.40;99.90;;;;;;5072781;28;20114;-81
2021/05/22 06:51:21;;;;;;;12.48;1.60;;;9.40;99.90;;;;;;5073105;28;20048;-81
2021/05/22 06:53:46;;;;;;;8.85;1.60;;;9.40;99.90;;;;;;5072959;28;20031;-81
2021/05/22 06:56:13;;;;;;;10.25;1.48;;;9.40;99.90;;;;;;5071671;28;20388;-82
2021/05/22 06:58:38;;;;;;;8.05;2.00;;;9.40;99.90;;;;;;5072233;28;20081;-81
2021/05/22 07:01:04;;;;;;;11.23;2.20;;;9.40;99.90;;;;;;5073011;28;20037;-81
2021/05/22 07:03:29;;;;;;;8.10;1.55;;;9.50;99.90;;;;;;5072911;28;20399;-80
2021/05/22 07:05:57;;;;;;;9.60;1.75;;;9.50;99.90;;;;;;5072717;28;20494;-80
2021/05/22 07:08:22;;;;;;;7.05;1.80;;;9.50;99.90;;;;;;5071539;28;20111;-81
2021/05/22 07:10:48;;;;;;;7.03;1.70;;;9.60;99.90;;;;;;5072161;28;20110;-81
2021/05/22 07:13:13;;;;;;;9.88;1.83;;;9.60;99.90;;;;;;5070774;28;20023;-81
2021/05/22 07:15:39;;;;;;;8.00;1.55;;;9.60;99.90;;;;;;5072282;28;20107;-81
2021/05/22 07:18:04;;;;;;;8.77;1.77;;;9.60;99.90;;;;;;5072239;28;20060;-80
2021/05/22 07:20:30;;;;;;;9.25;1.63;;;9.60;99.90;;;;;;5072292;28;20551;-81
2021/05/22 07:22:56;;;;;;;6.45;1.48;;;9.60;99.90;;;;;;5072194;28;20479;-81
2021/05/22 07:25:23;;;;;;;12.05;1.80;;;9.70;99.90;;;;;;5072206;28;20033;-81
2021/05/22 07:27:49;;;;;;;6.65;1.40;;;9.70;99.90;;;;;;5071783;28;20108;-80
2021/05/22 07:30:16;;;;;;;10.07;1.98;;;9.70;99.90;;;;;;5072003;28;20556;-82
2021/05/22 07:32:42;;;;;;;5.85;1.42;;;9.70;99.90;;;;;;5072106;28;20035;-81
2021/05/22 07:35:11;;;;;;;8.80;1.83;;;9.80;99.90;;;;;;5070810;28;20021;-81
2021/05/22 07:37:37;;;;;;;6.13;1.92;;;9.80;99.90;;;;;;5069935;28;20431;-81
2021/05/22 07:40:03;;;;;;;5.72;1.23;;;9.80;99.90;;;;;;5071983;28;20036;-81
2021/05/22 07:42:29;;;;;;;3.42;1.30;;;9.80;99.90;;;;;;5070735;28;20020;-81
2021/05/22 07:44:58;;;;;;;7.15;1.15;;;9.90;99.90;;;;;;5072099;28;20491;-81
2021/05/22 07:47:24;;;;;;;5.75;1.75;;;9.90;99.90;;;;;;5070702;28;20029;-81
2021/05/22 07:49:51;;;;;;;6.20;1.48;;;9.90;99.90;;;;;;5073123;28;20472;-81
2021/05/22 07:52:18;;;;;;;7.18;1.63;;;10.00;99.90;;;;;;5075365;28;20393;-81
2021/05/22 07:54:47;;;;;;;4.43;1.17;;;10.00;99.90;;;;;;5074231;28;20024;-81
2021/05/22 07:57:14;;;;;;;8.73;1.40;;;9.90;99.90;;;;;;5075514;28;20020;-82
2021/05/22 07:59:40;;;;;;;6.72;1.90;;;10.00;99.90;;;;;;5075514;28;20028;-81
2021/05/22 08:02:07;;;;;;;6.45;1.48;;;10.00;99.90;;;;;;5075355;28;20468;-74
2021/05/22 08:04:33;;;;;;;6.13;1.45;;;10.00;99.90;;;;;;5075451;28;20025;-75
2021/05/22 08:06:59;;;;;;;4.90;1.10;;;10.00;99.90;;;;;;5074998;28;20023;-74
2021/05/22 08:09:24;;;;;;;5.18;1.63;;;10.00;99.90;;;;;;5075294;28;20016;-74
2021/05/22 08:11:50;;;;;;;6.78;2.00;;;10.00;99.90;;;;;;5075348;28;20024;-74
2021/05/22 08:14:16;;;;;;;5.93;2.63;;;10.00;99.90;;;;;;5073975;28;20025;-74
2021/05/22 08:16:43;;;;;;;6.00;1.42;;;10.00;99.90;;;;;;5075124;28;20040;-74
2021/05/22 08:19:11;;;;;;;8.40;1.85;;;9.90;99.90;;;;;;5073103;28;20400;-74
2021/05/22 08:21:37;;;;;;;5.28;1.48;;;9.90;99.90;;;;;;5073179;28;20025;-74
2021/05/22 08:24:03;;;;;;;7.03;1.58;;;9.90;99.90;;;;;;5074560;28;20029;-74
2021/05/22 08:26:29;;;;;;;6.07;2.22;;;10.00;99.90;;;;;;5073863;28;20086;-74
2021/05/22 08:28:54;;;;;;;5.43;1.52;;;10.00;99.90;;;;;;5073965;28;20029;-74
2021/05/22 08:31:20;;;;;;;11.02;2.15;;;10.00;99.90;;;;;;5075396;28;20025;-74
2021/05/22 08:33:46;;;;;;;5.43;1.77;;;10.00;99.90;;;;;;5073993;28;20028;-74
2021/05/22 08:36:13;;;;;;;9.10;1.92;;;10.00;99.90;;;;;;5073752;28;20060;-74
2021/05/22 08:38:39;;;;;;;4.53;1.52;;;10.00;99.90;;;;;;5073640;28;20041;-74
2021/05/22 08:41:07;;;;;;;4.80;1.40;;;9.90;99.90;;;;;;5062484;28;20031;-75
2021/05/22 08:43:33;;;;;;;4.78;1.50;;;10.00;99.90;;;;;;5057187;28;20028;-74
2021/05/22 08:45:59;;;;;;;5.47;2.00;;;10.00;99.90;;;;;;5074976;28;20028;-74
2021/05/22 08:48:25;;;;;;;6.32;1.80;;;10.00;99.90;;;;;;5074148;28;20042;-75
2021/05/22 08:50:51;;;;;;;5.57;1.92;;;10.00;99.90;;;;;;5072701;28;20529;-75
2021/05/22 08:53:17;;;;;;;8.77;2.35;;;10.00;99.90;;;;;;5075690;28;20021;-73
2021/05/22 08:55:43;;;;;;;6.18;1.80;;;10.10;99.90;;;;;;5070369;28;20069;-73
2021/05/22 08:58:09;;;;;;;4.07;1.90;;;10.10;99.90;;;;;;5071615;28;20024;-74
2021/05/22 09:00:39;;;;;;;6.50;2.08;;;10.10;99.90;;;;;;5073212;28;20032;-74
2021/05/22 09:03:05;;;;;;;;;;;10.10;99.90;;;;;;5071518;28;20030;-74
2021/05/22 09:05:31;;;;;;;4.63;2.65;;;10.10;99.90;;;;;;5049218;28;19923;-74
2021/05/22 09:08:01;;;;;;;7.22;3.13;;;10.10;99.90;;;;;;5051145;28;20029;-74
2021/05/22 09:10:31;;;;;;;5.28;2.95;;;10.10;99.90;;;;;;5061927;28;20072;-74
2021/05/22 09:13:05;;;;;;;6.60;3.25;;;10.10;99.90;;;;;;5072533;28;20012;-74
2021/05/22 09:15:33;;;;;;;5.22;3.30;;;10.20;99.90;;;;;;5073175;28;20352;-75
2021/05/22 09:18:02;;;;;;;9.20;2.67;;;10.20;99.90;;;;;;5071890;28;20024;-75
2021/05/22 09:20:32;;;;;;;8.57;3.08;;;10.40;99.90;;;;;;5071715;28;20021;-75
2021/05/22 09:22:59;;;;;;;6.22;3.08;;;10.40;99.90;;;;;;5087416;28;20086;-75
2021/05/22 09:25:25;;;;;;;5.22;2.72;;;10.40;99.90;;;;;;5071004;28;20032;-75
2021/05/22 09:27:52;;;;;;;7.68;2.70;;;10.50;99.90;;;;;;5071171;28;20368;-75
2021/05/22 09:30:19;;;;;;;3.08;2.38;;;10.50;99.90;;;;;;5069887;28;20016;-75
2021/05/22 09:32:45;;;;;;;7.78;3.30;;;10.50;99.90;;;;;;5071951;28;20021;-76
2021/05/22 09:35:12;;;;;;;4.75;2.83;;;10.60;99.90;;;;;;5071937;28;20059;-75
2021/05/22 09:37:48;;;;;;;6.70;2.63;;;10.70;99.90;;;;;;5072013;28;20120;-76
2021/05/22 09:40:17;;;;;;;4.47;2.20;;;10.70;99.90;;;;;;5072466;28;20035;-75
2021/05/22 09:42:43;;;;;;;5.22;2.30;;;10.80;99.90;;;;;;5071557;28;20032;-75
2021/05/22 09:45:25;;;;;;;4.75;2.45;;;10.80;99.90;;;;;;5062710;28;20029;-75
2021/05/22 09:47:51;;;;;;;6.93;2.38;;;11.00;99.90;;;;;;5071853;28;20020;-75
2021/05/22 09:50:33;;;;;;;4.22;2.33;;;11.00;99.90;;;;;;5071726;28;20016;-75
2021/05/22 09:53:02;;;;;;;6.40;2.10;;;11.10;99.90;;;;;;5071827;28;20012;-76
2021/05/22 09:55:27;;;;;;;5.70;2.33;;;11.20;99.90;;;;;;5072218;28;20443;-76
2021/05/22 09:57:55;;;;;;;4.80;2.10;;;11.20;99.90;;;;;;5071242;28;20016;-76
2021/05/22 10:00:24;;;;;;;4.10;2.15;;;11.30;99.90;;;;;;5071198;28;20031;-78
2021/05/22 10:02:56;;;;;;;4.72;2.63;;;11.30;99.90;;;;;;5069424;28;20019;-77
2021/05/22 10:05:29;;;;;;;3.17;2.25;;;11.40;99.90;;;;;;5072011;28;20943;-78
2021/05/22 10:07:56;;;;;;;6.30;2.35;;;11.40;99.90;;;;;;5072141;28;20051;-75
2021/05/22 10:10:36;;;;;;;7.97;3.53;;;11.40;99.90;;;;;;5059239;28;20035;-76
2021/05/22 10:13:02;;;;;;;6.60;2.67;;;11.50;99.90;;;;;;5086019;28;20025;-75
2021/05/22 10:15:27;;;;;;;5.03;2.03;;;11.40;99.90;;;;;;5065918;28;20078;-75
2021/05/22 10:17:53;;;;;;;5.68;1.95;;;11.40;99.90;;;;;;5077769;28;20020;-75
2021/05/22 10:20:19;;;;;;;3.22;2.47;;;11.40;99.90;;;;;;5092040;28;20040;-75
2021/05/22 10:22:44;;;;;;;3.80;2.35;;;11.50;99.90;;;;;;5079884;28;20089;-75
2021/05/22 10:25:10;;;;;;;6.43;2.10;;;11.60;99.90;;;;;;5069175;28;20503;-76
2021/05/22 10:27:36;;;;;;;4.13;2.10;;;11.70;99.90;;;;;;5087029;28;20032;-76
2021/05/22 10:30:04;;;;;;;4.25;2.08;;;11.70;99.90;;;;;;5092368;28;20099;-75
2021/05/22 10:32:31;;;;;;;2.92;1.95;;;11.80;99.90;;;;;;5092209;28;20490;-76
2021/05/22 10:34:57;;;;;;;4.10;2.15;;;11.80;99.90;;;;;;5091229;28;20093;-76
2021/05/22 10:37:44;;;;;;;4.80;2.20;;;11.80;99.90;;;;;;5087797;28;20071;-76
2021/05/22 10:40:13;;;;;;;5.47;2.40;;;11.80;99.90;;;;;;5059547;28;20073;-82
2021/05/22 10:42:39;;;;;;;5.18;2.25;;;11.80;99.90;;;;;;5066803;28;20051;-81
2021/05/22 10:45:27;;;;;;;3.55;1.90;;;11.80;99.90;;;;;;5042309;28;20558;-83
2021/05/22 10:47:54;;;;;;;3.83;2.17;;;11.80;99.90;;;;;;5069078;28;20043;-81
2021/05/22 10:50:41;;;;;;;2.95;1.98;;;11.70;99.90;;;;;;5058635;28;20020;-80
2021/05/22 10:53:24;;;;;;;2.85;2.33;;;11.80;99.90;;;;;;5072421;28;20019;-75
2021/05/22 10:56:15;;;;;;;5.03;2.60;;;11.80;99.90;;;;;;5064796;28;20036;-75
2021/05/22 10:58:58;;;;;;;5.05;2.70;;;11.70;99.90;;;;;;5072169;28;20020;-75
2021/05/22 11:01:30;;;;;;;3.25;2.38;;;11.80;99.90;;;;;;5068876;28;20029;-76
2021/05/22 11:04:09;;;;;;;4.20;2.05;;;11.80;99.90;;;;;;5068493;28;20032;-75
2021/05/22 11:06:51;;;;;;;2.95;2.20;;;11.80;99.90;;;;;;5071323;28;20020;-75
2021/05/22 11:09:27;;;;;;;3.63;2.42;;;11.80;99.90;;;;;;5074622;28;20021;-75
2021/05/22 11:12:03;;;;;;;3.13;2.53;;;11.80;99.90;;;;;;5089234;28;20020;-75
2021/05/22 11:14:40;;;;;;;3.75;2.40;;;11.70;99.90;;;;;;5075959;28;20021;-75
2021/05/22 11:17:21;;;;;;;5.20;2.65;;;11.60;99.90;;;;;;5070533;28;20024;-75
2021/05/22 11:20:03;;;;;;;4.25;3.42;;;11.50;99.90;;;;;;5084000;28;20017;-75
2021/05/22 11:22:53;;;;;;;3.58;3.28;;;11.40;99.90;;;;;;5083426;28;20482;-75
2021/05/22 11:25:19;;;;;;;5.35;4.07;;;11.30;99.90;;;;;;5066616;28;20029;-76
2021/05/22 11:27:48;;;;;;;4.35;3.90;;;11.10;99.90;;;;;;5071484;28;20086;-76
2021/05/22 11:30:16;;;;;;;6.37;4.33;;;11.00;99.90;;;;;;5082609;28;20013;-76
2021/05/22 11:32:53;;;;;;;3.70;3.40;;;11.00;99.90;;;;;;5081525;28;20273;-76
2021/05/22 11:35:28;;;;;;;5.05;3.22;;;11.00;99.90;;;;;;5082242;28;20017;-76
2021/05/22 11:38:12;;;;;;;4.40;3.55;;;11.00;99.90;;;;;;5072280;28;20043;-75
2021/05/22 11:40:37;;;;;;;3.60;3.30;;;11.10;99.90;;;;;;5075929;28;20035;-75
2021/05/22 11:43:15;;;;;;;4.70;3.70;;;11.00;99.90;;;;;;5076540;28;20033;-75
2021/05/22 11:45:45;;;;;;;6.72;4.25;;;11.10;99.90;;;;;;5074503;28;20440;-76
2021/05/22 11:48:24;;;;;;;;;;;11.10;99.90;;;;;;5076415;28;20498;-76
2021/05/22 11:50:50;;;;;;;4.95;4.15;;;11.10;99.90;;;;;;5074815;28;19950;-76
2021/05/22 11:53:17;;;;;;;4.20;3.65;;;11.10;99.90;;;;;;5076403;28;20486;-76
2021/05/22 11:55:43;;;;;;;5.00;4.03;;;11.20;99.90;;;;;;5075457;28;20033;-76
2021/05/22 11:58:11;;;;;;;5.95;4.00;;;11.30;99.90;;;;;;5076132;28;20030;-76
2021/05/22 12:00:37;;;;;;;6.43;4.53;;;11.30;99.90;;;;;;5075856;28;20021;-76
2021/05/22 12:03:04;;;;;;;5.70;4.85;;;11.40;99.90;;;;;;5065996;28;20032;-76
2021/05/22 12:05:40;;;;;;;8.10;5.15;;;11.50;99.90;;;;;;5070883;28;20060;-75
2021/05/22 12:08:18;;;;;;;6.38;5.78;;;11.70;99.90;;;;;;5074841;28;20036;-76
2021/05/22 12:10:43;;;;;;;5.68;5.18;;;11.70;99.90;;;;;;5074842;28;20027;-76
2021/05/22 12:13:09;;;;;;;7.15;5.93;;;11.60;99.90;;;;;;5075025;28;20020;-76
2021/05/22 12:15:36;;;;;;;10.73;6.47;;;11.50;99.90;;;;;;5074326;28;20024;-75
2021/05/22 12:18:06;;;;;;;6.97;6.03;;;11.40;99.90;;;;;;5074706;28;20035;-76
2021/05/22 12:20:45;;;;;;;6.38;4.72;;;11.30;99.90;;;;;;5075015;28;20043;-76
2021/05/22 12:23:29;;;;;;;6.95;4.43;;;11.10;99.90;;;;;;5077315;28;20554;-76
2021/05/22 12:25:56;;;;;;;6.70;4.47;;;10.90;99.90;;;;;;5072203;28;20083;-75
2021/05/22 12:28:23;;;;;;;5.72;4.80;;;10.80;99.90;;;;;;5074523;28;20048;-76
2021/05/22 12:30:52;;;;;;;8.35;6.00;;;10.70;99.90;;;;;;5073292;28;20059;-75
2021/05/22 12:33:18;;;;;;;8.00;6.53;;;10.70;99.90;;;;;;5075089;28;20017;-76
2021/05/22 12:36:00;;;;;;;9.50;8.40;;;10.70;99.90;;;;;;5071515;28;20077;-80
2021/05/22 12:38:35;;;;;;;8.10;7.30;;;10.80;99.90;;;;;;5066419;28;20048;-81
2021/05/22 12:41:01;;;;;;;14.05;7.90;;;10.80;99.90;;;;;;5079752;28;20027;-80
2021/05/22 12:43:50;;;;;;;10.63;8.20;;;10.80;99.90;;;;;;5075826;28;20028;-81
2021/05/22 12:46:33;;;;;;;9.43;7.80;;;10.90;99.90;;;;;;5077818;28;20024;-80
2021/05/22 12:49:18;;;;;;;10.75;8.43;;;11.00;99.90;;;;;;5076925;28;20119;-81
2021/05/22 12:51:44;;;;;;;10.68;7.95;;;11.00;99.90;;;;;;5075196;28;20023;-80